Ashton, Nebraska
Current Conditions -  °F | °C
As of 7:53 PM on Sunday 21 Dec 2014 (Local Time) from KGRI Reporting Station
Overcast Overcast  
Wind Chill:   Ceiling: 700
Heat Index:   Visibility: 10mi
Dew Point:   Wind: 16mph
Humidity: 93%   Direction: 180°S
Pressure: 29.58"   Gusts: NA
Location:  41.25°N, 98.79°W
Report Text: KGRI 220153Z 18014KT 10SM OVC007 04/03 A2958 RMK AO2 SLP034 T00440033
Loading
Personal Weather Stations






























Interactive Weather Map New forecast layout! Learn more

10-Day Weather Forecast

Advertisements
Track Severe Weather on mobile